Guffey, Colorado
Current Conditions -  °F | °C
As of 10:54 PM on Wednesday 17 Dec 2014 (Local Time) from K4BM Reporting Station
Overcast Overcast  
Wind Chill: 13°   Ceiling: 9000
Heat Index: 19°   Visibility: 10mi
Dew Point: 16°   Wind: 5mph
Humidity: 86%   Direction: 320°NW
Pressure: 30"   Gusts: NA
Location:  38.75°N, 105.52°W
Report Text: K4BM 180554Z AUTO 32004KT 10SM SCT065 OVC090 M07/M09 A3000 RMK AO2
Loading
Personal Weather Stations






























Interactive Weather Map New forecast layout! Learn more

10-Day Weather Forecast

Advertisements
Track Severe Weather on mobile